Bellview, Florida
Current Conditions -  °F | °C
As of 9:53 AM on Monday 22 Dec 2014 (Local Time) from KPNS Reporting Station
Overcast Overcast  
Wind Chill: 54°   Ceiling: 300
Heat Index: 54°   Visibility: 10mi
Dew Point: 54°   Wind: 8mph
Humidity: 100%   Direction: 40°NE
Pressure: 29.88"   Gusts: NA
Location:  30.46°N, 87.31°W
Report Text: KPNS 221553Z 04007KT 10SM BKN003 OVC049 12/12 A2988 RMK AO2 RAE27 SLP121 P0001 T01220122 $
Loading
Personal Weather Stations






























Interactive Weather Map New forecast layout! Learn more

10-Day Weather Forecast

Advertisements
Track Severe Weather on mobile